createdAt,value
2018-02-20T00:02:21.036Z,98436
2018-02-20T00:04:48.615Z,98446
2018-02-20T00:07:17.128Z,98443
2018-02-20T00:09:45.478Z,98436
2018-02-20T00:12:13.049Z,98449
2018-02-20T00:14:40.691Z,98452
2018-02-20T00:17:08.283Z,98449
2018-02-20T00:19:36.052Z,98441
2018-02-20T00:22:03.728Z,98428
2018-02-20T00:24:32.082Z,98436
2018-02-20T00:26:59.651Z,98440
2018-02-20T00:29:27.659Z,98426
2018-02-20T00:31:55.303Z,98431
2018-02-20T00:34:23.681Z,98437
2018-02-20T00:36:52.908Z,98434
2018-02-20T00:39:21.458Z,98427
2018-02-20T00:41:49.832Z,98433
2018-02-20T00:44:17.724Z,98429
2018-02-20T00:46:46.068Z,98423
2018-02-20T00:49:13.653Z,98422
2018-02-20T00:51:42.006Z,98428
2018-02-20T00:54:09.647Z,98422
2018-02-20T00:56:37.213Z,98426
2018-02-20T00:59:04.842Z,98434
2018-02-20T01:01:32.480Z,98426
2018-02-20T01:04:00.090Z,98428
2018-02-20T01:06:27.670Z,98429
2018-02-20T01:08:55.267Z,98428
2018-02-20T01:11:23.619Z,98432
2018-02-20T01:13:51.204Z,98432
2018-02-20T01:16:20.811Z,98432
2018-02-20T01:18:48.454Z,98436
2018-02-20T01:21:16.140Z,98441
2018-02-20T01:23:45.036Z,98426
2018-02-20T01:26:12.687Z,98429
2018-02-20T01:28:41.097Z,98426
2018-02-20T01:31:08.678Z,98412
2018-02-20T01:33:36.263Z,98407
2018-02-20T01:36:03.848Z,98418
2018-02-20T01:38:32.197Z,98425
2018-02-20T01:40:59.808Z,98413
2018-02-20T01:43:27.391Z,98419
2018-02-20T01:45:55.005Z,98421
2018-02-20T01:48:23.392Z,98427
2018-02-20T01:51:03.510Z,98426
2018-02-20T01:53:31.201Z,98421
2018-02-20T01:55:58.877Z,98412
2018-02-20T01:58:26.484Z,98411
2018-02-20T02:00:54.117Z,98409
2018-02-20T02:03:21.753Z,98413
2018-02-20T02:05:50.227Z,98420
2018-02-20T02:08:17.829Z,98421
2018-02-20T02:10:45.466Z,98417
2018-02-20T02:13:13.944Z,98414
2018-02-20T02:15:42.317Z,98412
2018-02-20T02:18:10.107Z,98411
2018-02-20T02:20:38.502Z,98421
2018-02-20T02:23:06.145Z,98411
2018-02-20T02:25:34.493Z,98415
2018-02-20T02:28:03.158Z,98421
2018-02-20T02:30:30.744Z,98414
2018-02-20T02:32:58.366Z,98416
2018-02-20T02:35:25.953Z,98415
2018-02-20T02:37:53.639Z,98414
2018-02-20T02:40:21.999Z,98408
2018-02-20T02:42:50.625Z,98419
2018-02-20T02:45:19.456Z,98417
2018-02-20T02:47:47.055Z,98411
2018-02-20T02:50:15.679Z,98397
2018-02-20T02:52:43.341Z,98403
2018-02-20T02:55:10.915Z,98404
2018-02-20T02:57:38.534Z,98402
2018-02-20T03:00:06.893Z,98410
2018-02-20T03:02:34.469Z,98420
2018-02-20T03:05:02.864Z,98414
2018-02-20T03:07:31.202Z,98417
2018-02-20T03:09:59.113Z,98407
2018-02-20T03:12:26.742Z,98413
2018-02-20T03:14:54.643Z,98418
2018-02-20T03:17:22.296Z,98415
2018-02-20T03:19:51.709Z,98404
2018-02-20T03:22:20.054Z,98411
2018-02-20T03:24:48.680Z,98406
2018-02-20T03:27:16.267Z,98409
2018-02-20T03:29:43.890Z,98411
2018-02-20T03:32:11.542Z,98421
2018-02-20T03:34:39.934Z,98421
2018-02-20T03:37:07.605Z,98415
2018-02-20T03:39:35.279Z,98409
2018-02-20T03:42:03.129Z,98417
2018-02-20T03:44:31.477Z,98424
2018-02-20T03:46:59.074Z,98420
2018-02-20T03:49:27.422Z,98422
2018-02-20T03:51:55.800Z,98420
2018-02-20T03:54:23.407Z,98421
2018-02-20T03:56:50.999Z,98428
2018-02-20T03:59:18.598Z,98438
2018-02-20T04:01:47.079Z,98433
2018-02-20T04:04:15.507Z,98419
2018-02-20T04:06:43.147Z,98427
2018-02-20T04:09:10.714Z,98423
2018-02-20T04:11:38.302Z,98428
2018-02-20T04:14:06.233Z,98433
2018-02-20T04:16:33.967Z,98427
2018-02-20T04:19:01.725Z,98427
2018-02-20T04:21:29.424Z,98418
2018-02-20T04:23:57.120Z,98416
2018-02-20T04:26:24.691Z,98417
2018-02-20T04:28:52.401Z,98420
2018-02-20T04:31:22.066Z,98420
2018-02-20T04:33:50.877Z,98428
2018-02-20T04:36:18.477Z,98418
2018-02-20T04:38:46.114Z,98420
2018-02-20T04:41:13.802Z,98423
2018-02-20T04:43:41.380Z,98423
2018-02-20T04:46:09.031Z,98429
2018-02-20T04:48:36.673Z,98419
2018-02-20T04:51:05.059Z,98415
2018-02-20T04:53:33.402Z,98413
2018-02-20T04:56:00.989Z,98421
2018-02-20T04:58:29.417Z,98408
2018-02-20T05:00:56.990Z,98414
2018-02-20T05:03:24.702Z,98421
2018-02-20T05:05:53.157Z,98415
2018-02-20T05:08:21.867Z,98406
2018-02-20T05:10:51.222Z,98402
2018-02-20T05:13:19.456Z,98404
2018-02-20T05:15:47.800Z,98402
2018-02-20T05:18:15.385Z,98399
2018-02-20T05:20:43.755Z,98399
2018-02-20T05:23:11.527Z,98406
2018-02-20T05:25:39.886Z,98395
2018-02-20T05:28:07.467Z,98412
2018-02-20T05:30:35.808Z,98400
2018-02-20T05:33:03.381Z,98405
2018-02-20T05:35:30.969Z,98401
2018-02-20T05:37:59.668Z,98396
2018-02-20T05:40:28.009Z,98401
2018-02-20T05:42:55.800Z,98409
2018-02-20T05:45:24.183Z,98418
2018-02-20T05:47:52.561Z,98418
2018-02-20T05:50:21.179Z,98421
2018-02-20T05:52:49.566Z,98431
2018-02-20T05:55:17.147Z,98431
2018-02-20T05:57:44.747Z,98433
2018-02-20T06:00:13.160Z,98434
2018-02-20T06:02:40.784Z,98433
2018-02-20T06:05:09.169Z,98431
2018-02-20T06:07:37.650Z,98443
2018-02-20T06:10:06.111Z,98440
2018-02-20T06:12:33.691Z,98444
2018-02-20T06:15:02.031Z,98443
2018-02-20T06:17:29.670Z,98446
2018-02-20T06:19:57.250Z,98445
2018-02-20T06:22:24.818Z,98438
2018-02-20T06:24:52.424Z,98463
2018-02-20T06:27:21.940Z,98448
2018-02-20T06:29:50.986Z,98441
2018-02-20T06:32:18.580Z,98442
2018-02-20T06:34:46.938Z,98440
2018-02-20T06:37:14.527Z,98444
2018-02-20T06:39:42.159Z,98448
2018-02-20T06:42:09.812Z,98460
2018-02-20T06:44:37.420Z,98446
2018-02-20T06:47:05.061Z,98452
2018-02-20T06:49:33.494Z,98440
2018-02-20T06:52:01.104Z,98455
2018-02-20T06:54:29.472Z,98445
2018-02-20T06:56:57.039Z,98464
2018-02-20T06:59:24.617Z,98461
2018-02-20T07:01:53.024Z,98456
2018-02-20T07:04:22.100Z,98450
2018-02-20T07:06:51.809Z,98458
2018-02-20T07:09:21.471Z,98464
2018-02-20T07:11:49.594Z,98454
2018-02-20T07:14:17.934Z,98442
2018-02-20T07:16:46.337Z,98452
2018-02-20T07:19:13.948Z,98447
2018-02-20T07:21:41.568Z,98455
2018-02-20T07:24:09.946Z,98451
2018-02-20T07:26:37.601Z,98453
2018-02-20T07:29:05.962Z,98457
2018-02-20T07:31:34.739Z,98449
2018-02-20T07:34:02.337Z,98462
2018-02-20T07:36:30.753Z,98451
2018-02-20T07:38:58.375Z,98454
2018-02-20T07:41:26.759Z,98455
2018-02-20T07:43:55.215Z,98461
2018-02-20T07:46:22.788Z,98459
2018-02-20T07:48:51.687Z,98458
2018-02-20T07:51:21.515Z,98447
2018-02-20T07:53:50.414Z,98442
2018-02-20T07:56:18.059Z,98437
2018-02-20T07:58:46.526Z,98453
2018-02-20T08:01:14.114Z,98459
2018-02-20T08:03:42.486Z,98455
2018-02-20T08:06:10.152Z,98454
2018-02-20T08:08:38.486Z,98452
2018-02-20T08:11:06.039Z,98450
2018-02-20T08:13:33.660Z,98462
2018-02-20T08:16:01.499Z,98452
2018-02-20T08:18:29.136Z,98455
2018-02-20T08:20:56.749Z,98462
2018-02-20T08:23:25.328Z,98468
2018-02-20T08:25:52.937Z,98458
2018-02-20T08:28:21.577Z,98466
2018-02-20T08:30:49.915Z,98464
2018-02-20T08:33:17.500Z,98463
2018-02-20T08:35:45.841Z,98463
2018-02-20T08:38:13.404Z,98469
2018-02-20T08:40:41.125Z,98474
2018-02-20T08:43:08.763Z,98472
2018-02-20T08:45:36.339Z,98464
2018-02-20T08:48:04.775Z,98469
2018-02-20T08:50:32.428Z,98474
2018-02-20T08:53:00.458Z,98481
2018-02-20T08:55:28.120Z,98476
2018-02-20T08:57:55.688Z,98467
2018-02-20T09:00:23.301Z,98463
2018-02-20T09:02:51.821Z,98468
2018-02-20T09:05:19.461Z,98459
2018-02-20T09:07:47.066Z,98463
2018-02-20T09:10:14.724Z,98466
2018-02-20T09:12:42.361Z,98462
2018-02-20T09:15:10.192Z,98465
2018-02-20T09:17:37.771Z,98472
2018-02-20T09:20:05.370Z,98457
2018-02-20T09:22:33.010Z,98452
2018-02-20T09:25:00.792Z,98454
2018-02-20T09:27:28.377Z,98463
2018-02-20T09:29:55.958Z,98451
2018-02-20T09:32:23.607Z,98457
2018-02-20T09:34:51.210Z,98449
2018-02-20T09:37:19.447Z,98447
2018-02-20T09:39:47.076Z,98445
2018-02-20T09:42:14.660Z,98444
2018-02-20T09:44:42.399Z,98429
2018-02-20T09:47:09.976Z,98425
2018-02-20T09:49:37.543Z,98437
2018-02-20T09:52:05.470Z,98444
2018-02-20T09:54:33.870Z,98448
2018-02-20T09:57:01.522Z,98437
2018-02-20T09:59:29.874Z,98439
2018-02-20T10:01:57.441Z,98440
2018-02-20T10:04:25.048Z,98442
2018-02-20T10:06:52.681Z,98447
2018-02-20T10:09:21.994Z,98443
2018-02-20T10:11:51.654Z,98443
2018-02-20T10:14:20.267Z,98447
2018-02-20T10:16:47.863Z,98441
2018-02-20T10:19:15.518Z,98446
2018-02-20T10:21:43.854Z,98444
2018-02-20T10:24:11.455Z,98443
2018-02-20T10:26:39.796Z,98437
2018-02-20T10:29:07.385Z,98447
2018-02-20T10:31:34.978Z,98446
2018-02-20T10:34:02.559Z,98446
2018-02-20T10:36:30.350Z,98446
2018-02-20T10:38:57.963Z,98451
2018-02-20T10:41:25.537Z,98444
2018-02-20T10:43:53.146Z,98428
2018-02-20T10:46:21.502Z,98457
2018-02-20T10:48:49.619Z,98437
2018-02-20T10:51:17.241Z,98434
2018-02-20T10:53:44.947Z,98429
2018-02-20T10:56:13.017Z,98429
2018-02-20T10:58:41.395Z,98428
2018-02-20T11:01:09.749Z,98423
2018-02-20T11:03:37.541Z,98419
2018-02-20T11:06:05.231Z,98419
2018-02-20T11:08:32.821Z,98416
2018-02-20T11:11:00.450Z,98421
2018-02-20T11:13:28.066Z,98411
2018-02-20T11:15:56.456Z,98404
2018-02-20T11:18:24.828Z,98412
2018-02-20T11:20:52.446Z,98410
2018-02-20T11:23:20.084Z,98397
2018-02-20T11:25:47.740Z,98399
2018-02-20T11:28:15.395Z,98404
2018-02-20T11:30:43.369Z,98400
2018-02-20T11:33:11.389Z,98405
2018-02-20T11:35:38.977Z,98400
2018-02-20T11:38:06.694Z,98406
2018-02-20T11:40:34.306Z,98397
2018-02-20T11:43:02.703Z,98403
2018-02-20T11:45:31.111Z,98411
2018-02-20T11:47:58.699Z,98410
2018-02-20T11:50:26.399Z,98409
2018-02-20T11:52:54.755Z,98418
2018-02-20T11:55:23.136Z,98415
2018-02-20T11:57:51.514Z,98406
2018-02-20T12:00:21.782Z,98418
2018-02-20T12:02:50.503Z,98410
2018-02-20T12:05:18.128Z,98422
2018-02-20T12:07:45.797Z,98414
2018-02-20T12:10:13.370Z,98423
2018-02-20T12:12:40.951Z,98418
2018-02-20T12:15:08.531Z,98432
2018-02-20T12:17:36.937Z,98424
2018-02-20T12:20:05.328Z,98422
2018-02-20T12:22:32.975Z,98422
2018-02-20T12:25:01.353Z,98421
2018-02-20T12:27:29.728Z,98422
2018-02-20T12:29:57.333Z,98421
2018-02-20T12:32:24.991Z,98416
2018-02-20T12:34:52.566Z,98424
2018-02-20T12:37:21.159Z,98418
2018-02-20T12:39:49.365Z,98423
2018-02-20T12:42:16.973Z,98421
2018-02-20T12:44:44.575Z,98430
2018-02-20T12:47:12.278Z,98427
2018-02-20T12:49:39.945Z,98420
2018-02-20T12:52:07.563Z,98430
2018-02-20T12:54:35.277Z,98428
2018-02-20T12:57:02.883Z,98425
2018-02-20T12:59:30.498Z,98427
2018-02-20T13:01:58.087Z,98418
2018-02-20T13:04:25.699Z,98434
2018-02-20T13:06:54.198Z,98436
2018-02-20T13:09:21.916Z,98436
2018-02-20T13:11:50.841Z,98434
2018-02-20T13:14:20.262Z,98432
2018-02-20T13:16:47.915Z,98421
2018-02-20T13:19:16.319Z,98426
2018-02-20T13:21:43.922Z,98428
2018-02-20T13:24:11.546Z,98427
2018-02-20T13:26:39.153Z,98429
2018-02-20T13:29:06.841Z,98438
2018-02-20T13:31:35.255Z,98432
2018-02-20T13:34:02.948Z,98442
2018-02-20T13:36:30.522Z,98436
2018-02-20T13:38:58.210Z,98440
2018-02-20T13:41:25.899Z,98437
2018-02-20T13:43:53.550Z,98423
2018-02-20T13:46:21.141Z,98427
2018-02-20T13:48:49.484Z,98427
2018-02-20T13:51:17.067Z,98435
2018-02-20T13:53:44.802Z,98428
2018-02-20T13:56:13.182Z,98433
2018-02-20T13:58:40.930Z,98434
2018-02-20T14:01:08.599Z,98434
2018-02-20T14:03:36.291Z,98439
2018-02-20T14:06:03.895Z,98446
2018-02-20T14:08:31.476Z,98439
2018-02-20T14:10:59.833Z,98439
2018-02-20T14:13:27.851Z,98452
2018-02-20T14:15:56.232Z,98448
2018-02-20T14:18:23.995Z,98452
2018-02-20T14:20:51.582Z,98446
2018-02-20T14:23:20.220Z,98438
2018-02-20T14:25:47.841Z,98447
2018-02-20T14:28:15.452Z,98445
2018-02-20T14:30:43.851Z,98448
2018-02-20T14:33:11.509Z,98454
2018-02-20T14:35:39.114Z,98445
2018-02-20T14:38:06.701Z,98446
2018-02-20T14:40:34.394Z,98448
2018-02-20T14:43:02.769Z,98447
2018-02-20T14:45:31.127Z,98450
2018-02-20T14:47:59.226Z,98429
2018-02-20T14:50:26.931Z,98457
2018-02-20T14:52:54.551Z,98454
2018-02-20T14:55:22.882Z,98456
2018-02-20T14:57:51.457Z,98459
2018-02-20T15:00:19.487Z,98450
2018-02-20T15:02:48.490Z,98456
2018-02-20T15:05:16.164Z,98460
2018-02-20T15:07:43.809Z,98463
2018-02-20T15:10:11.571Z,98456
2018-02-20T15:12:39.192Z,98465
2018-02-20T15:15:06.779Z,98475
2018-02-20T15:17:35.155Z,98465
2018-02-20T15:20:03.542Z,98473
2018-02-20T15:22:31.132Z,98463
2018-02-20T15:24:58.770Z,98472
2018-02-20T15:27:27.118Z,98470
2018-02-20T15:29:54.713Z,98477
2018-02-20T15:32:23.047Z,98483
2018-02-20T15:34:51.948Z,98481
2018-02-20T15:37:19.623Z,98469
2018-02-20T15:39:48.338Z,98486
2018-02-20T15:42:16.790Z,98484
2018-02-20T15:44:44.480Z,98484
2018-02-20T15:47:12.879Z,98487
2018-02-20T15:49:40.516Z,98491
2018-02-20T15:52:09.467Z,98483
2018-02-20T15:54:37.054Z,98488
2018-02-20T15:57:05.057Z,98486
2018-02-20T15:59:32.695Z,98487
2018-02-20T16:02:01.399Z,98495
2018-02-20T16:04:29.292Z,98498
2018-02-20T16:06:57.067Z,98492
2018-02-20T16:09:24.751Z,98501
2018-02-20T16:11:52.409Z,98497
2018-02-20T16:14:20.825Z,98503
2018-02-20T16:16:57.407Z,98498
2018-02-20T16:19:25.680Z,98506
2018-02-20T16:21:54.032Z,98509
2018-02-20T16:24:21.664Z,98512
2018-02-20T16:26:50.410Z,98525
2018-02-20T16:29:18.977Z,98510
2018-02-20T16:31:46.766Z,98523
2018-02-20T16:34:14.420Z,98519
2018-02-20T16:36:43.163Z,98521
2018-02-20T16:39:12.101Z,98538
2018-02-20T16:41:40.622Z,98526
2018-02-20T16:44:08.240Z,98516
2018-02-20T16:46:36.841Z,98538
2018-02-20T16:49:04.501Z,98526
2018-02-20T16:51:32.111Z,98536
2018-02-20T16:54:00.151Z,98541
2018-02-20T16:56:27.797Z,98526
2018-02-20T16:58:56.172Z,98539
2018-02-20T17:01:24.100Z,98528
2018-02-20T17:03:51.838Z,98542
2018-02-20T17:06:20.257Z,98548
2018-02-20T17:08:47.968Z,98541
2018-02-20T17:11:15.633Z,98538
2018-02-20T17:13:43.413Z,98539
2018-02-20T17:16:11.130Z,98545
2018-02-20T17:18:39.492Z,98544
2018-02-20T17:21:07.172Z,98542
2018-02-20T17:23:34.816Z,98529
2018-02-20T17:26:02.606Z,98554
2018-02-20T17:28:30.970Z,98560
2018-02-20T17:30:58.815Z,98559
2018-02-20T17:33:26.524Z,98566
2018-02-20T17:35:55.420Z,98568
2018-02-20T17:38:23.197Z,98571
2018-02-20T17:40:51.249Z,98565
2018-02-20T17:43:19.043Z,98579
2018-02-20T17:45:46.720Z,98578
2018-02-20T17:48:14.394Z,98579
2018-02-20T17:50:42.117Z,98578
2018-02-20T17:53:09.924Z,98593
2018-02-20T17:55:38.449Z,98589
2018-02-20T17:58:06.884Z,98594
2018-02-20T18:00:34.647Z,98596
2018-02-20T18:03:02.300Z,98594
2018-02-20T18:05:30.943Z,98596
2018-02-20T18:07:59.291Z,98594
2018-02-20T18:10:26.988Z,98611
2018-02-20T18:12:55.453Z,98612
2018-02-20T18:15:24.192Z,98612
2018-02-20T18:17:52.029Z,98606
2018-02-20T18:20:20.707Z,98616
2018-02-20T18:22:49.614Z,98619
2018-02-20T18:25:17.485Z,98608
2018-02-20T18:27:45.080Z,98621
2018-02-20T18:30:12.912Z,98615
2018-02-20T18:32:40.674Z,98619
2018-02-20T18:35:08.360Z,98630
2018-02-20T18:37:36.005Z,98632
2018-02-20T18:40:03.687Z,98632
2018-02-20T18:42:31.362Z,98634
2018-02-20T18:44:59.124Z,98634
2018-02-20T18:47:27.071Z,98630
2018-02-20T18:49:54.947Z,98636
2018-02-20T18:52:22.709Z,98639
2018-02-20T18:54:51.411Z,98646
2018-02-20T18:57:19.563Z,98650
2018-02-20T18:59:47.212Z,98652
2018-02-20T19:02:15.552Z,98659
2018-02-20T19:04:43.140Z,98656
2018-02-20T19:07:11.530Z,98652
2018-02-20T19:09:39.912Z,98643
2018-02-20T19:12:08.285Z,98651
2018-02-20T19:14:35.874Z,98654
2018-02-20T19:17:03.463Z,98650
2018-02-20T19:19:31.069Z,98662
2018-02-20T19:21:59.429Z,98656
2018-02-20T19:26:14.293Z,98655
2018-02-20T19:28:42.701Z,98655
2018-02-20T19:31:10.295Z,98655
2018-02-20T19:33:38.965Z,98657
2018-02-20T19:36:06.578Z,98658
2018-02-20T19:38:34.185Z,98657
2018-02-20T19:41:01.783Z,98656
2018-02-20T19:43:29.391Z,98651
2018-02-20T19:45:57.154Z,98666
2018-02-20T19:48:24.877Z,98663
2018-02-20T19:50:52.453Z,98667
2018-02-20T19:53:20.987Z,98668
2018-02-20T19:55:50.520Z,98669
2018-02-20T19:58:18.137Z,98654
2018-02-20T20:00:46.519Z,98667
2018-02-20T20:03:14.862Z,98652
2018-02-20T20:05:42.436Z,98653
2018-02-20T20:08:10.013Z,98678
2018-02-20T20:10:37.586Z,98645
2018-02-20T20:13:05.986Z,98654
2018-02-20T20:15:33.577Z,98647
2018-02-20T20:18:01.240Z,98647
2018-02-20T20:20:36.907Z,98654
2018-02-20T20:22:56.881Z,98656
2018-02-20T20:25:24.480Z,98656
2018-02-20T20:27:52.839Z,98656
2018-02-20T20:30:21.345Z,98657
2018-02-20T20:32:50.712Z,98652
2018-02-20T20:35:18.308Z,98653
2018-02-20T20:37:46.780Z,98656
2018-02-20T20:40:14.382Z,98652
2018-02-20T20:42:42.021Z,98653
2018-02-20T20:45:10.396Z,98656
2018-02-20T20:47:38.749Z,98660
2018-02-20T20:50:06.342Z,98671
2018-02-20T20:52:34.677Z,98664
2018-02-20T20:55:02.270Z,98663
2018-02-20T20:57:30.608Z,98664
2018-02-20T20:59:58.172Z,98663
2018-02-20T21:02:25.769Z,98663
2018-02-20T21:04:54.161Z,98666
2018-02-20T21:07:22.572Z,98670
2018-02-20T21:09:51.123Z,98663
2018-02-20T21:12:20.813Z,98656
2018-02-20T21:14:48.507Z,98664
2018-02-20T21:17:16.475Z,98653
2018-02-20T21:19:44.127Z,98654
2018-02-20T21:22:12.505Z,98649
2018-02-20T21:24:40.843Z,98647
2018-02-20T21:27:08.452Z,98650
2018-02-20T21:29:36.924Z,98651
2018-02-20T21:32:05.269Z,98649
2018-02-20T21:34:32.861Z,98656
2018-02-20T21:37:01.245Z,98652
2018-02-20T21:39:29.617Z,98653
2018-02-20T21:41:57.284Z,98649
2018-02-20T21:44:25.664Z,98657
2018-02-20T21:46:54.020Z,98653
2018-02-20T21:49:21.597Z,98649
2018-02-20T21:51:50.386Z,98650
2018-02-20T21:54:18.597Z,98648
2018-02-20T21:56:46.240Z,98646
2018-02-20T21:59:14.613Z,98641
2018-02-20T22:01:43.031Z,98653
2018-02-20T22:04:10.718Z,98656
2018-02-20T22:06:38.327Z,98655
2018-02-20T22:09:06.777Z,98641
2018-02-20T22:11:34.574Z,98663
2018-02-20T22:14:02.224Z,98652
2018-02-20T22:16:30.652Z,98654
2018-02-20T22:18:58.452Z,98662
2018-02-20T22:21:26.046Z,98666
2018-02-20T22:23:54.406Z,98660
2018-02-20T22:26:22.072Z,98672
2018-02-20T22:28:51.787Z,98669
2018-02-20T22:31:21.241Z,98668
2018-02-20T22:33:49.586Z,98679
2018-02-20T22:36:17.925Z,98675
2018-02-20T22:38:45.505Z,98679
2018-02-20T22:41:13.160Z,98673
2018-02-20T22:43:40.978Z,98688
2018-02-20T22:46:08.578Z,98692
2018-02-20T22:48:36.426Z,98684
2018-02-20T22:51:04.798Z,98679
2018-02-20T22:53:32.375Z,98683
2018-02-20T22:56:00.599Z,98683
2018-02-20T22:58:28.255Z,98686
2018-02-20T23:00:56.632Z,98680
2018-02-20T23:03:24.976Z,98690
2018-02-20T23:05:52.559Z,98685
2018-02-20T23:08:21.426Z,98693
2018-02-20T23:10:49.544Z,98696
2018-02-20T23:13:17.904Z,98686
2018-02-20T23:15:45.571Z,98701
2018-02-20T23:18:13.957Z,98702
2018-02-20T23:20:42.337Z,98699
2018-02-20T23:23:10.830Z,98700
2018-02-20T23:25:38.475Z,98698
2018-02-20T23:28:06.230Z,98705
2018-02-20T23:30:33.810Z,98705
2018-02-20T23:33:02.152Z,98707
2018-02-20T23:35:29.721Z,98707
2018-02-20T23:37:57.325Z,98711
2018-02-20T23:40:24.896Z,98715
2018-02-20T23:42:52.462Z,98703
2018-02-20T23:45:20.131Z,98710
2018-02-20T23:47:47.689Z,98711
2018-02-20T23:50:15.312Z,98703
2018-02-20T23:52:43.688Z,98706
2018-02-20T23:55:12.059Z,98705
2018-02-20T23:57:39.792Z,98717
